FRS153 LOLH-LOLU
Flight info
| Callsign | FRS153 |
|---|---|
| Flight time | 0h 12m |
| Altitude | 2500 |
| Route | DCT |
| Aircraft | B06/L-SDGRY/S |
Departure
| Time | 2026-05-05 18:20 |
|---|---|
| Airport | Hofkirchen Airfield (LOLH) |
Arrival
| Time | 2026-05-05 18:32 |
|---|---|
| Airport | Gmunden-Laakirchen Airfield (LOLU) |
| Time | Latitude | Longitude | Altitude | Speed | Heading |
|---|---|---|---|---|---|
| 2026-05-05 18:07 | 48.13898 | 14.33212 | 1179 ft | 0 kts | 345° |
| 2026-05-05 18:18 | 48.13899 | 14.33213 | 1182 ft | 1 kts | 320° |
| 2026-05-05 18:18 | 48.13903 | 14.33219 | 1191 ft | 1 kts | 259° |
| 2026-05-05 18:18 | 48.13771 | 14.32958 | 1292 ft | 51 kts | 245° |
| 2026-05-05 18:19 | 48.13713 | 14.32374 | 1408 ft | 62 kts | 275° |
| 2026-05-05 18:19 | 48.13762 | 14.31650 | 1567 ft | 79 kts | 276° |
| 2026-05-05 18:19 | 48.13788 | 14.30770 | 1645 ft | 87 kts | 270° |
| 2026-05-05 18:19 | 48.13753 | 14.29848 | 1695 ft | 89 kts | 266° |
| 2026-05-05 18:20 | 48.13374 | 14.29083 | 1862 ft | 104 kts | 212° |
| 2026-05-05 18:20 | 48.12879 | 14.28909 | 1895 ft | 113 kts | 187° |
| 2026-05-05 18:20 | 48.11805 | 14.29062 | 1941 ft | 122 kts | 165° |
| 2026-05-05 18:20 | 48.10971 | 14.29366 | 2007 ft | 122 kts | 175° |
| 2026-05-05 18:21 | 48.10105 | 14.29215 | 1975 ft | 129 kts | 199° |
| 2026-05-05 18:21 | 48.09373 | 14.28426 | 1925 ft | 132 kts | 227° |
| 2026-05-05 18:21 | 48.08818 | 14.27370 | 1975 ft | 129 kts | 234° |
| 2026-05-05 18:21 | 48.08332 | 14.26282 | 2080 ft | 125 kts | 241° |
| 2026-05-05 18:22 | 48.07945 | 14.25157 | 2231 ft | 119 kts | 246° |
| 2026-05-05 18:22 | 48.07622 | 14.24021 | 2367 ft | 117 kts | 250° |
| 2026-05-05 18:22 | 48.07371 | 14.22889 | 2531 ft | 111 kts | 254° |
| 2026-05-05 18:22 | 48.07247 | 14.21787 | 2592 ft | 107 kts | 270° |
| 2026-05-05 18:23 | 48.07280 | 14.20669 | 2646 ft | 107 kts | 273° |
| 2026-05-05 18:23 | 48.07337 | 14.19569 | 2688 ft | 103 kts | 274° |
| 2026-05-05 18:23 | 48.07398 | 14.18528 | 2758 ft | 101 kts | 274° |
| 2026-05-05 18:23 | 48.07438 | 14.17484 | 2750 ft | 99 kts | 274° |
| 2026-05-05 18:24 | 48.07472 | 14.16428 | 2705 ft | 102 kts | 274° |
| 2026-05-05 18:24 | 48.07480 | 14.15725 | 2709 ft | 103 kts | 271° |
| 2026-05-05 18:24 | 48.07462 | 14.14656 | 2721 ft | 102 kts | 266° |
| 2026-05-05 18:24 | 48.07308 | 14.13606 | 2668 ft | 104 kts | 256° |
| 2026-05-05 18:25 | 48.07058 | 14.12603 | 2663 ft | 103 kts | 252° |
| 2026-05-05 18:25 | 48.06886 | 14.11942 | 2681 ft | 101 kts | 253° |
| 2026-05-05 18:25 | 48.06640 | 14.10648 | 2788 ft | 94 kts | 259° |
| 2026-05-05 18:25 | 48.06476 | 14.09717 | 2878 ft | 92 kts | 257° |
| 2026-05-05 18:26 | 48.06260 | 14.08792 | 2880 ft | 99 kts | 253° |
| 2026-05-05 18:26 | 48.06003 | 14.07846 | 2967 ft | 93 kts | 251° |
| 2026-05-05 18:26 | 48.05733 | 14.06982 | 3048 ft | 92 kts | 249° |
| 2026-05-05 18:26 | 48.05440 | 14.06108 | 3083 ft | 97 kts | 246° |
| 2026-05-05 18:27 | 48.05102 | 14.05239 | 3132 ft | 98 kts | 241° |
| 2026-05-05 18:27 | 48.04680 | 14.04376 | 3086 ft | 105 kts | 240° |
| 2026-05-05 18:27 | 48.04273 | 14.03467 | 3074 ft | 105 kts | 241° |
| 2026-05-05 18:27 | 48.03875 | 14.02562 | 3079 ft | 106 kts | 242° |
| 2026-05-05 18:28 | 48.03093 | 14.00610 | 2973 ft | 113 kts | 243° |
| 2026-05-05 18:28 | 48.02696 | 13.99536 | 2831 ft | 119 kts | 243° |
| 2026-05-05 18:28 | 48.02328 | 13.98453 | 2751 ft | 117 kts | 245° |
| 2026-05-05 18:29 | 48.01992 | 13.97334 | 2648 ft | 120 kts | 250° |
| 2026-05-05 18:29 | 48.01704 | 13.96191 | 2597 ft | 116 kts | 251° |
| 2026-05-05 18:29 | 48.01419 | 13.95067 | 2518 ft | 115 kts | 251° |
| 2026-05-05 18:29 | 48.01155 | 13.93942 | 2482 ft | 114 kts | 251° |
| 2026-05-05 18:30 | 48.00897 | 13.92800 | 2425 ft | 116 kts | 252° |
| 2026-05-05 18:30 | 48.00572 | 13.91746 | 2456 ft | 109 kts | 237° |
| 2026-05-05 18:30 | 48.00053 | 13.90938 | 2486 ft | 107 kts | 224° |
| 2026-05-05 18:30 | 47.99404 | 13.90388 | 2515 ft | 111 kts | 204° |
| 2026-05-05 18:31 | 47.98665 | 13.89992 | 2506 ft | 114 kts | 203° |
| 2026-05-05 18:31 | 47.97920 | 13.89608 | 2503 ft | 113 kts | 199° |
| 2026-05-05 18:31 | 47.97192 | 13.89229 | 2568 ft | 114 kts | 197° |
| 2026-05-05 18:31 | 47.96403 | 13.88860 | 2461 ft | 120 kts | 198° |
| 2026-05-05 18:32 | 47.95749 | 13.88390 | 2220 ft | 93 kts | 225° |
| 2026-05-05 18:32 | 47.95402 | 13.87651 | 2025 ft | 83 kts | 237° |
| 2026-05-05 18:32 | 47.95208 | 13.87009 | 1792 ft | 53 kts | 253° |
| 2026-05-05 18:32 | 47.95141 | 13.86632 | 1673 ft | 18 kts | 260° |
| 2026-05-05 18:33 | 47.95154 | 13.86570 | 1663 ft | 2 kts | 334° |
| 2026-05-05 18:33 | 47.95156 | 13.86568 | 1651 ft | 0 kts | 328° |
| 2026-05-05 18:34 | 47.95174 | 13.86602 | 1650 ft | 0 kts | 160° |